createdAt,value
2023-03-05T00:00:07.939Z,90.18
2023-03-05T00:02:59.898Z,89.45
2023-03-05T00:05:46.714Z,89.16
2023-03-05T00:08:33.761Z,89.38
2023-03-05T00:11:21.492Z,90.95
2023-03-05T00:14:08.380Z,90.90
2023-03-05T00:16:56.610Z,92.08
2023-03-05T00:19:43.354Z,91.13
2023-03-05T00:22:30.152Z,90.90
2023-03-05T00:25:17.106Z,91.97
2023-03-05T00:28:03.898Z,94.55
2023-03-05T00:30:51.240Z,94.52
2023-03-05T00:33:40.658Z,98.46
2023-03-05T00:36:28.423Z,97.88
2023-03-05T00:39:15.418Z,99.32
2023-03-05T00:42:04.222Z,100.00
2023-03-05T00:44:51.249Z,99.61
2023-03-05T00:47:38.232Z,99.56
2023-03-05T00:50:26.757Z,99.51
2023-03-05T00:53:14.107Z,99.63
2023-03-05T00:56:01.251Z,98.84
2023-03-05T00:58:47.871Z,99.03
2023-03-05T01:01:34.362Z,100.00
2023-03-05T01:04:22.163Z,100.00
2023-03-05T01:07:10.405Z,100.00
2023-03-05T01:09:57.238Z,100.00
2023-03-05T01:12:44.028Z,100.00
2023-03-05T01:15:31.403Z,100.00
2023-03-05T01:18:18.671Z,100.00
2023-03-05T01:21:06.366Z,100.00
2023-03-05T01:23:54.827Z,100.00
2023-03-05T01:26:41.681Z,100.00
2023-03-05T01:29:28.411Z,100.00
2023-03-05T01:32:15.405Z,100.00
2023-03-05T01:35:02.973Z,100.00
2023-03-05T01:37:49.848Z,100.00
2023-03-05T01:40:37.952Z,100.00
2023-03-05T01:43:28.431Z,99.75
2023-03-05T01:46:28.676Z,99.87
2023-03-05T01:49:20.856Z,99.41
2023-03-05T01:52:11.821Z,98.21
2023-03-05T01:55:01.747Z,97.57
2023-03-05T01:57:53.621Z,95.32
2023-03-05T02:00:45.108Z,95.80
2023-03-05T02:03:32.861Z,95.40
2023-03-05T02:06:19.660Z,94.88
2023-03-05T02:09:06.712Z,94.54
2023-03-05T02:11:53.603Z,93.69
2023-03-05T02:14:46.291Z,92.66
2023-03-05T02:17:33.085Z,92.49
2023-03-05T02:20:22.086Z,92.50
2023-03-05T02:23:10.129Z,92.76
2023-03-05T02:25:57.518Z,90.86
2023-03-05T02:28:47.969Z,90.52
2023-03-05T02:31:34.658Z,90.77
2023-03-05T02:34:21.426Z,90.33
2023-03-05T02:37:10.718Z,89.59
2023-03-05T02:39:59.865Z,88.42
2023-03-05T02:42:47.157Z,88.15
2023-03-05T02:45:34.814Z,87.15
2023-03-05T02:48:21.475Z,87.02
2023-03-05T02:51:09.297Z,86.93
2023-03-05T02:53:55.851Z,86.50
2023-03-05T02:56:47.482Z,87.33
2023-03-05T02:59:34.130Z,85.08
2023-03-05T03:02:20.938Z,85.53
2023-03-05T03:05:08.858Z,85.31
2023-03-05T03:07:55.630Z,86.04
2023-03-05T03:10:42.463Z,84.02
2023-03-05T03:13:30.516Z,83.76
2023-03-05T03:16:17.969Z,84.36
2023-03-05T03:19:04.407Z,83.49
2023-03-05T03:21:51.326Z,83.03
2023-03-05T03:24:39.301Z,84.48
2023-03-05T03:27:25.974Z,84.41
2023-03-05T03:30:15.300Z,83.85
2023-03-05T03:33:01.980Z,84.22
2023-03-05T03:35:48.699Z,82.81
2023-03-05T03:38:35.424Z,82.01
2023-03-05T03:41:22.279Z,83.52
2023-03-05T03:44:10.764Z,83.84
2023-03-05T03:46:58.504Z,83.60
2023-03-05T03:49:45.295Z,84.14
2023-03-05T03:52:32.151Z,82.39
2023-03-05T03:55:18.876Z,83.67
2023-03-05T03:58:05.628Z,84.42
2023-03-05T04:00:52.470Z,83.83
2023-03-05T04:03:40.473Z,82.62
2023-03-05T04:06:27.119Z,83.51
2023-03-05T04:09:13.944Z,82.68
2023-03-05T04:12:00.674Z,83.99
2023-03-05T04:14:47.872Z,83.76
2023-03-05T04:17:34.444Z,83.90
2023-03-05T04:20:22.600Z,85.41
2023-03-05T04:23:08.982Z,84.03
2023-03-05T04:25:55.961Z,83.84
2023-03-05T04:28:42.660Z,85.42
2023-03-05T04:31:29.493Z,85.80
2023-03-05T04:34:16.081Z,85.44
2023-03-05T04:37:04.436Z,84.91
2023-03-05T04:39:51.556Z,85.82
2023-03-05T04:42:38.472Z,88.58
2023-03-05T04:45:25.094Z,86.91
2023-03-05T04:48:12.856Z,87.99
2023-03-05T04:50:59.547Z,88.24
2023-03-05T04:53:47.758Z,88.27
2023-03-05T04:56:36.390Z,88.28
2023-03-05T04:59:23.016Z,89.15
2023-03-05T05:02:09.871Z,90.42
2023-03-05T05:04:56.871Z,90.64
2023-03-05T05:07:43.524Z,89.55
2023-03-05T05:10:31.709Z,91.25
2023-03-05T05:13:19.876Z,90.53
2023-03-05T05:16:08.586Z,91.79
2023-03-05T05:18:55.266Z,91.06
2023-03-05T05:21:42.580Z,92.30
2023-03-05T05:24:29.933Z,91.64
2023-03-05T05:27:20.441Z,92.15
2023-03-05T05:30:08.381Z,92.28
2023-03-05T05:32:54.918Z,92.91
2023-03-05T05:35:41.740Z,92.76
2023-03-05T05:38:28.386Z,93.06
2023-03-05T05:41:18.626Z,93.21
2023-03-05T05:44:06.669Z,93.16
2023-03-05T05:46:53.230Z,93.48
2023-03-05T05:49:39.927Z,92.79
2023-03-05T05:52:26.739Z,94.46
2023-03-05T05:55:14.200Z,93.72
2023-03-05T05:58:00.523Z,92.34
2023-03-05T06:00:48.658Z,92.17
2023-03-05T06:03:35.448Z,93.43
2023-03-05T06:06:24.417Z,92.78
2023-03-05T06:09:10.874Z,93.90
2023-03-05T06:11:57.661Z,93.91
2023-03-05T06:14:44.386Z,94.64
2023-03-05T06:17:32.545Z,94.56
2023-03-05T06:20:19.571Z,94.23
2023-03-05T06:23:06.324Z,94.21
2023-03-05T06:25:53.792Z,93.99
2023-03-05T06:28:40.324Z,94.84
2023-03-05T06:31:29.575Z,95.77
2023-03-05T06:34:17.521Z,96.46
2023-03-05T06:37:04.367Z,97.52
2023-03-05T06:39:51.147Z,97.20
2023-03-05T06:42:37.979Z,97.60
2023-03-05T06:45:24.771Z,96.89
2023-03-05T06:48:11.777Z,96.78
2023-03-05T06:50:59.798Z,96.86
2023-03-05T06:53:49.369Z,97.59
2023-03-05T06:56:38.152Z,96.32
2023-03-05T06:59:25.161Z,96.45
2023-03-05T07:02:13.730Z,96.80
2023-03-05T07:05:00.316Z,95.84
2023-03-05T07:07:48.398Z,94.78
2023-03-05T07:10:39.138Z,95.69
2023-03-05T07:13:25.690Z,95.67
2023-03-05T07:16:16.420Z,96.17
2023-03-05T07:19:05.702Z,94.07
2023-03-05T07:21:52.604Z,93.96
2023-03-05T07:24:40.812Z,93.93
2023-03-05T07:27:27.567Z,92.91
2023-03-05T07:30:15.140Z,91.42
2023-03-05T07:33:02.192Z,89.47
2023-03-05T07:35:49.055Z,88.97
2023-03-05T07:38:35.994Z,90.08
2023-03-05T07:41:24.488Z,87.51
2023-03-05T07:44:11.346Z,87.07
2023-03-05T07:46:58.090Z,86.41
2023-03-05T07:49:44.776Z,87.04
2023-03-05T07:52:31.648Z,86.95
2023-03-05T07:55:18.602Z,86.42
2023-03-05T07:58:06.597Z,85.59
2023-03-05T08:00:53.370Z,83.18
2023-03-05T08:03:40.568Z,83.43
2023-03-05T08:06:27.401Z,83.09
2023-03-05T08:09:14.392Z,83.23
2023-03-05T08:12:01.151Z,82.93
2023-03-05T08:14:49.285Z,83.82
2023-03-05T08:17:36.112Z,82.49
2023-03-05T08:20:23.221Z,82.11
2023-03-05T08:23:09.753Z,80.18
2023-03-05T08:25:57.249Z,81.51
2023-03-05T08:28:43.749Z,81.85
2023-03-05T08:31:32.132Z,81.28
2023-03-05T08:34:18.876Z,80.56
2023-03-05T08:37:06.249Z,84.19
2023-03-05T08:39:52.985Z,80.21
2023-03-05T08:42:39.765Z,78.77
2023-03-05T08:45:27.647Z,78.69
2023-03-05T08:48:15.804Z,78.63
2023-03-05T08:51:06.780Z,75.96
2023-03-05T08:53:53.703Z,78.10
2023-03-05T08:56:40.591Z,76.63
2023-03-05T08:59:27.028Z,77.68
2023-03-05T09:02:14.427Z,78.03
2023-03-05T09:05:02.673Z,76.46
2023-03-05T09:07:49.286Z,75.74
2023-03-05T09:10:36.083Z,76.35
2023-03-05T09:13:23.193Z,75.81
2023-03-05T09:16:13.255Z,76.58
2023-03-05T09:19:00.231Z,75.42
2023-03-05T09:21:48.471Z,74.66
2023-03-05T09:24:35.178Z,73.57
2023-03-05T09:27:22.205Z,73.26
2023-03-05T09:30:10.052Z,73.34
2023-03-05T09:32:56.878Z,72.61
2023-03-05T09:35:43.696Z,72.86
2023-03-05T09:38:32.071Z,72.13
2023-03-05T09:41:27.819Z,70.84
2023-03-05T09:44:24.538Z,71.28
2023-03-05T09:47:28.323Z,72.24
2023-03-05T09:50:32.990Z,74.07
2023-03-05T09:53:27.257Z,73.67
2023-03-05T09:56:18.032Z,76.00
2023-03-05T09:59:16.380Z,72.87
2023-03-05T10:02:13.685Z,71.45
2023-03-05T10:05:05.481Z,74.87
2023-03-05T10:07:56.428Z,71.53
2023-03-05T10:10:49.883Z,71.40
2023-03-05T10:13:42.279Z,69.63
2023-03-05T10:17:01.095Z,68.93
2023-03-05T10:20:04.532Z,68.69
2023-03-05T10:23:11.346Z,66.93
2023-03-05T10:26:08.133Z,67.11
2023-03-05T10:29:12.897Z,66.87
2023-03-05T10:32:13.082Z,67.04
2023-03-05T10:35:29.652Z,66.36
2023-03-05T10:38:27.704Z,66.17
2023-03-05T10:41:21.114Z,65.29
2023-03-05T10:44:15.324Z,63.59
2023-03-05T10:47:03.045Z,62.82
2023-03-05T10:49:53.265Z,62.39
2023-03-05T10:52:46.721Z,61.87
2023-03-05T10:55:33.526Z,60.09
2023-03-05T10:58:20.219Z,59.51
2023-03-05T11:01:22.784Z,58.95
2023-03-05T11:04:26.984Z,60.00
2023-03-05T11:07:38.513Z,59.00
2023-03-05T11:10:26.264Z,59.00
2023-03-05T11:13:26.439Z,59.15
2023-03-05T11:16:21.088Z,59.61
2023-03-05T11:19:20.143Z,58.76
2023-03-05T11:22:16.619Z,58.23
2023-03-05T11:25:14.238Z,58.66
2023-03-05T11:28:03.255Z,56.17
2023-03-05T11:30:58.212Z,60.18
2023-03-05T11:33:57.966Z,63.87
2023-03-05T11:37:03.641Z,63.09
2023-03-05T11:39:50.570Z,62.28
2023-03-05T11:42:41.399Z,62.89
2023-03-05T11:45:29.695Z,62.44
2023-03-05T11:48:21.002Z,62.93
2023-03-05T11:51:16.897Z,64.14
2023-03-05T11:54:13.193Z,62.25
2023-03-05T11:57:02.594Z,62.48
2023-03-05T11:59:51.375Z,62.29
2023-03-05T12:02:39.174Z,62.45
2023-03-05T12:05:34.721Z,62.99
2023-03-05T12:08:28.599Z,61.48
2023-03-05T12:11:22.153Z,61.67
2023-03-05T12:14:20.255Z,60.94
2023-03-05T12:17:11.530Z,60.33
2023-03-05T12:20:06.493Z,62.15
2023-03-05T12:22:53.832Z,60.82
2023-03-05T12:25:49.256Z,61.82
2023-03-05T12:28:59.435Z,61.93
2023-03-05T12:31:46.393Z,61.21
2023-03-05T12:34:48.434Z,62.56
2023-03-05T12:38:06.179Z,62.53
2023-03-05T12:41:35.806Z,62.19
2023-03-05T12:44:23.793Z,62.25
2023-03-05T12:47:23.701Z,61.92
2023-03-05T12:50:52.898Z,62.00
2023-03-05T12:53:39.744Z,63.06
2023-03-05T12:56:31.093Z,62.75
2023-03-05T12:59:23.019Z,63.44
2023-03-05T13:02:23.009Z,63.16
2023-03-05T13:05:21.862Z,63.01
2023-03-05T13:08:22.077Z,63.19
2023-03-05T13:11:18.056Z,65.00
2023-03-05T13:14:05.107Z,64.75
2023-03-05T13:16:53.237Z,63.24
2023-03-05T13:19:42.970Z,64.76
2023-03-05T13:22:29.974Z,63.49
2023-03-05T13:25:20.646Z,61.57
2023-03-05T13:28:12.958Z,63.55
2023-03-05T13:31:02.364Z,63.58
2023-03-05T13:33:56.918Z,62.59
2023-03-05T13:36:48.464Z,60.55
2023-03-05T13:39:38.423Z,61.19
2023-03-05T13:42:28.494Z,60.44
2023-03-05T13:45:24.687Z,60.25
2023-03-05T13:48:20.388Z,59.14
2023-03-05T13:51:09.709Z,62.71
2023-03-05T13:53:56.381Z,59.84
2023-03-05T13:56:51.230Z,58.53
2023-03-05T13:59:40.071Z,60.88
2023-03-05T14:02:28.991Z,59.50
2023-03-05T14:05:16.562Z,59.13
2023-03-05T14:08:05.191Z,58.03
2023-03-05T14:10:52.522Z,59.12
2023-03-05T14:13:39.592Z,59.02
2023-03-05T14:16:28.147Z,57.67
2023-03-05T14:19:34.850Z,57.17
2023-03-05T14:22:33.199Z,57.47
2023-03-05T14:25:36.617Z,56.22
2023-03-05T14:28:28.320Z,57.60
2023-03-05T14:31:18.377Z,57.89
2023-03-05T14:34:07.352Z,57.23
2023-03-05T14:36:57.387Z,57.96
2023-03-05T14:39:50.802Z,55.69
2023-03-05T14:42:51.469Z,55.27
2023-03-05T14:45:39.814Z,55.91
2023-03-05T14:48:26.561Z,56.72
2023-03-05T14:51:13.570Z,56.26
2023-03-05T14:54:00.214Z,55.18
2023-03-05T14:56:48.031Z,57.31
2023-03-05T14:59:36.176Z,56.54
2023-03-05T15:02:24.811Z,54.52
2023-03-05T15:05:11.388Z,56.47
2023-03-05T15:07:58.361Z,57.46
2023-03-05T15:10:45.449Z,54.56
2023-03-05T15:13:32.384Z,55.67
2023-03-05T15:16:21.053Z,54.53
2023-03-05T15:19:07.526Z,55.90
2023-03-05T15:21:54.176Z,55.64
2023-03-05T15:24:40.990Z,55.33
2023-03-05T15:27:27.910Z,55.85
2023-03-05T15:30:22.540Z,56.07
2023-03-05T15:33:12.667Z,55.30
2023-03-05T15:35:59.598Z,55.78
2023-03-05T15:38:48.124Z,55.17
2023-03-05T15:41:34.861Z,57.13
2023-03-05T15:44:22.226Z,56.30
2023-03-05T15:47:09.125Z,55.39
2023-03-05T15:49:57.179Z,56.36
2023-03-05T15:52:43.858Z,56.31
2023-03-05T15:55:30.654Z,57.99
2023-03-05T15:58:18.317Z,56.61
2023-03-05T16:01:04.810Z,56.41
2023-03-05T16:03:51.970Z,56.00
2023-03-05T16:06:40.194Z,57.49
2023-03-05T16:09:30.900Z,55.58
2023-03-05T16:12:23.461Z,55.72
2023-03-05T16:15:12.234Z,56.10
2023-03-05T16:18:01.757Z,56.53
2023-03-05T16:20:48.753Z,57.94
2023-03-05T16:23:36.859Z,57.29
2023-03-05T16:26:23.768Z,57.65
2023-03-05T16:29:10.965Z,57.72
2023-03-05T16:32:03.749Z,58.65
2023-03-05T16:34:51.001Z,58.79
2023-03-05T16:37:41.161Z,59.50
2023-03-05T16:40:56.657Z,58.29
2023-03-05T16:43:51.533Z,59.12
2023-03-05T16:46:41.641Z,58.46
2023-03-05T16:49:28.811Z,59.16
2023-03-05T16:52:18.977Z,59.37
2023-03-05T16:55:07.718Z,59.93
2023-03-05T16:57:57.719Z,59.50
2023-03-05T17:00:46.300Z,59.93
2023-03-05T17:03:33.671Z,60.15
2023-03-05T17:06:22.652Z,60.25
2023-03-05T17:09:09.345Z,59.94
2023-03-05T17:11:56.299Z,60.23
2023-03-05T17:14:44.456Z,59.88
2023-03-05T17:17:31.923Z,60.21
2023-03-05T17:20:20.176Z,60.18
2023-03-05T17:23:06.753Z,59.66
2023-03-05T17:25:53.684Z,59.71
2023-03-05T17:28:41.110Z,59.34
2023-03-05T17:31:32.587Z,59.47
2023-03-05T17:34:33.308Z,58.92
2023-03-05T17:37:21.111Z,59.48
2023-03-05T17:40:09.494Z,59.42
2023-03-05T17:42:58.470Z,59.51
2023-03-05T17:45:48.928Z,58.94
2023-03-05T17:48:39.410Z,58.01
2023-03-05T17:51:26.903Z,58.98
2023-03-05T17:54:13.876Z,59.92
2023-03-05T17:57:01.178Z,60.00
2023-03-05T17:59:48.637Z,58.92
2023-03-05T18:02:43.576Z,59.48
2023-03-05T18:05:36.783Z,60.90
2023-03-05T18:08:25.558Z,60.52
2023-03-05T18:11:15.995Z,62.37
2023-03-05T18:14:05.757Z,63.80
2023-03-05T18:16:55.404Z,62.01
2023-03-05T18:19:42.298Z,63.65
2023-03-05T18:22:30.268Z,63.11
2023-03-05T18:25:17.087Z,62.67
2023-03-05T18:28:05.887Z,64.06
2023-03-05T18:30:53.075Z,64.07
2023-03-05T18:33:39.836Z,63.92
2023-03-05T18:36:26.466Z,65.52
2023-03-05T18:39:16.355Z,64.35
2023-03-05T18:42:03.264Z,65.17
2023-03-05T18:44:49.980Z,64.35
2023-03-05T18:47:39.108Z,66.13
2023-03-05T18:50:28.777Z,65.14
2023-03-05T18:53:15.848Z,65.32
2023-03-05T18:56:03.870Z,66.82
2023-03-05T18:58:51.068Z,66.61
2023-03-05T19:01:39.187Z,66.61
2023-03-05T19:04:25.734Z,67.51
2023-03-05T19:07:12.539Z,67.41
2023-03-05T19:10:03.829Z,67.38
2023-03-05T19:12:57.729Z,67.58
2023-03-05T19:15:44.465Z,69.19
2023-03-05T19:18:33.946Z,69.73
2023-03-05T19:21:20.502Z,69.92
2023-03-05T19:24:08.060Z,70.76
2023-03-05T19:26:56.118Z,71.69
2023-03-05T19:29:45.066Z,72.34
2023-03-05T19:32:31.655Z,72.60
2023-03-05T19:35:19.254Z,72.78
2023-03-05T19:38:06.183Z,74.29
2023-03-05T19:40:53.287Z,76.20
2023-03-05T19:43:40.611Z,76.33
2023-03-05T19:46:29.182Z,76.45
2023-03-05T19:49:17.571Z,76.77
2023-03-05T19:52:06.412Z,77.04
2023-03-05T19:54:53.529Z,78.28
2023-03-05T19:57:40.844Z,78.62
2023-03-05T20:00:29.584Z,78.65
2023-03-05T20:03:18.323Z,80.58
2023-03-05T20:06:06.301Z,81.55
2023-03-05T20:08:54.336Z,81.64
2023-03-05T20:11:41.620Z,81.27
2023-03-05T20:14:28.826Z,81.22
2023-03-05T20:17:16.426Z,82.24
2023-03-05T20:20:05.131Z,82.02
2023-03-05T20:22:52.323Z,82.23
2023-03-05T20:25:40.022Z,81.37
2023-03-05T20:28:27.069Z,82.17
2023-03-05T20:31:14.379Z,81.23
2023-03-05T20:34:01.767Z,81.19
2023-03-05T20:36:50.270Z,80.97
2023-03-05T20:39:37.012Z,81.17
2023-03-05T20:42:23.969Z,81.80
2023-03-05T20:45:14.339Z,81.13
2023-03-05T20:48:04.818Z,81.71
2023-03-05T20:50:53.259Z,81.64
2023-03-05T20:53:45.565Z,80.80
2023-03-05T20:56:39.649Z,80.69
2023-03-05T20:59:29.626Z,80.67
2023-03-05T21:02:19.668Z,80.28
2023-03-05T21:05:10.657Z,79.70
2023-03-05T21:08:05.615Z,80.92
2023-03-05T21:10:53.585Z,82.31
2023-03-05T21:13:40.418Z,82.26
2023-03-05T21:16:28.427Z,82.53
2023-03-05T21:19:14.804Z,81.03
2023-03-05T21:22:01.695Z,81.29
2023-03-05T21:25:00.939Z,82.56
2023-03-05T21:27:49.821Z,83.30
2023-03-05T21:30:38.795Z,83.41
2023-03-05T21:33:30.272Z,83.85
2023-03-05T21:36:20.343Z,84.91
2023-03-05T21:39:07.047Z,85.03
2023-03-05T21:41:53.759Z,86.41
2023-03-05T21:44:42.007Z,84.93
2023-03-05T21:47:28.634Z,86.22
2023-03-05T21:50:16.964Z,84.60
2023-03-05T21:53:03.938Z,86.12
2023-03-05T21:56:04.190Z,87.59
2023-03-05T21:58:51.202Z,87.93
2023-03-05T22:01:39.368Z,89.47
2023-03-05T22:04:29.813Z,88.71
2023-03-05T22:07:21.985Z,86.97
2023-03-05T22:10:11.807Z,90.65
2023-03-05T22:13:07.006Z,90.85
2023-03-05T22:15:55.534Z,91.35
2023-03-05T22:18:43.498Z,92.67
2023-03-05T22:21:30.900Z,93.42
2023-03-05T22:24:17.416Z,93.69
2023-03-05T22:27:04.574Z,94.49
2023-03-05T22:29:51.385Z,94.36
2023-03-05T22:32:38.620Z,94.87
2023-03-05T22:35:27.153Z,93.13
2023-03-05T22:38:14.016Z,94.42
2023-03-05T22:41:00.644Z,94.73
2023-03-05T22:43:48.268Z,94.29
2023-03-05T22:46:34.755Z,96.01
2023-03-05T22:49:21.436Z,97.05
2023-03-05T22:52:09.685Z,99.77
2023-03-05T22:54:56.396Z,100.00
2023-03-05T22:57:43.648Z,100.00
2023-03-05T23:00:32.035Z,100.00
2023-03-05T23:03:18.801Z,100.00
2023-03-05T23:06:07.232Z,100.00
2023-03-05T23:08:55.163Z,100.00
2023-03-05T23:11:41.908Z,100.00
2023-03-05T23:14:29.126Z,100.00
2023-03-05T23:17:16.146Z,100.00
2023-03-05T23:20:05.128Z,100.00
2023-03-05T23:22:53.722Z,100.00
2023-03-05T23:25:41.892Z,100.00
2023-03-05T23:28:28.589Z,100.00
2023-03-05T23:31:18.753Z,100.00
2023-03-05T23:34:05.225Z,100.00
2023-03-05T23:36:51.961Z,100.00
2023-03-05T23:39:38.654Z,100.00
2023-03-05T23:42:29.590Z,100.00
2023-03-05T23:45:18.085Z,100.00
2023-03-05T23:48:05.395Z,100.00
2023-03-05T23:50:52.706Z,100.00
2023-03-05T23:53:39.271Z,100.00
2023-03-05T23:56:26.181Z,100.00
2023-03-05T23:59:14.293Z,100.00
